sensor_id;sensor_type;location;lat;lon;timestamp;temperature;humidity
44447;DHT22;30152;52.066;5.358;2024-01-16T08:13:03;1.10;99.90
44447;DHT22;30152;52.066;5.358;2024-01-16T08:15:29;1.30;99.90
44447;DHT22;30152;52.066;5.358;2024-01-16T08:17:54;1.10;99.90
44447;DHT22;30152;52.066;5.358;2024-01-16T08:20:20;0.70;99.90
44447;DHT22;30152;52.066;5.358;2024-01-16T08:22:45;0.60;99.90
44447;DHT22;30152;52.066;5.358;2024-01-16T08:25:11;0.60;99.90
44447;DHT22;30152;52.066;5.358;2024-01-16T08:27:36;0.80;99.90
44447;DHT22;30152;52.066;5.358;2024-01-16T08:30:06;0.50;99.90
44447;DHT22;30152;52.066;5.358;2024-01-16T08:34:58;1.10;99.90
44447;DHT22;30152;52.066;5.358;2024-01-16T08:39:51;0.70;99.90
44447;DHT22;30152;52.066;5.358;2024-01-16T08:52:03;0.80;99.90
44447;DHT22;30152;52.066;5.358;2024-01-16T08:59:24;0.70;99.90
44447;DHT22;30152;52.066;5.358;2024-01-16T09:06:42;1.00;99.90
44447;DHT22;30152;52.066;5.358;2024-01-16T09:09:08;1.20;99.90
44447;DHT22;30152;52.066;5.358;2024-01-16T09:31:02;1.50;99.90
44447;DHT22;30152;52.066;5.358;2024-01-16T09:33:28;1.60;99.90
44447;DHT22;30152;52.066;5.358;2024-01-16T09:45:40;1.10;99.90
44447;DHT22;30152;52.066;5.358;2024-01-16T09:48:06;1.70;99.90
44447;DHT22;30152;52.066;5.358;2024-01-16T09:50:33;1.50;99.90
44447;DHT22;30152;52.066;5.358;2024-01-16T09:52:59;1.00;99.90
44447;DHT22;30152;52.066;5.358;2024-01-16T09:57:53;1.20;99.90
44447;DHT22;30152;52.066;5.358;2024-01-16T10:07:42;1.50;99.90
44447;DHT22;30152;52.066;5.358;2024-01-16T10:10:11;1.70;99.90
44447;DHT22;30152;52.066;5.358;2024-01-16T10:12:38;1.40;99.90
44447;DHT22;30152;52.066;5.358;2024-01-16T10:15:06;1.40;99.90
44447;DHT22;30152;52.066;5.358;2024-01-16T10:20:02;1.20;99.90
44447;DHT22;30152;52.066;5.358;2024-01-16T10:22:31;1.40;99.90
44447;DHT22;30152;52.066;5.358;2024-01-16T10:25:07;2.10;99.90
44447;DHT22;30152;52.066;5.358;2024-01-16T10:30:00;2.90;99.90
44447;DHT22;30152;52.066;5.358;2024-01-16T10:32:29;2.00;99.90
44447;DHT22;30152;52.066;5.358;2024-01-16T10:35:06;2.70;99.90
44447;DHT22;30152;52.066;5.358;2024-01-16T10:47:28;3.60;99.90
44447;DHT22;30152;52.066;5.358;2024-01-16T10:57:16;3.20;99.90
44447;DHT22;30152;52.066;5.358;2024-01-16T11:00:04;3.80;99.90
44447;DHT22;30152;52.066;5.358;2024-01-16T11:02:44;4.10;99.90
44447;DHT22;30152;52.066;5.358;2024-01-16T11:05:15;3.50;99.90
44447;DHT22;30152;52.066;5.358;2024-01-16T11:07:42;3.60;99.90
44447;DHT22;30152;52.066;5.358;2024-01-16T11:10:10;3.30;99.90
44447;DHT22;30152;52.066;5.358;2024-01-16T11:12:38;3.60;99.90
44447;DHT22;30152;52.066;5.358;2024-01-16T11:15:08;3.00;99.90
44447;DHT22;30152;52.066;5.358;2024-01-16T11:17:38;3.80;99.90
44447;DHT22;30152;52.066;5.358;2024-01-16T11:20:05;4.80;99.90
44447;DHT22;30152;52.066;5.358;2024-01-16T11:22:43;4.60;99.90
44447;DHT22;30152;52.066;5.358;2024-01-16T11:27:37;5.80;99.90
44447;DHT22;30152;52.066;5.358;2024-01-16T11:30:08;5.90;99.90
44447;DHT22;30152;52.066;5.358;2024-01-16T11:32:37;5.70;99.90
44447;DHT22;30152;52.066;5.358;2024-01-16T11:35:07;5.90;99.90
44447;DHT22;30152;52.066;5.358;2024-01-16T11:37:33;5.60;99.90
44447;DHT22;30152;52.066;5.358;2024-01-16T11:42:42;4.90;99.90
44447;DHT22;30152;52.066;5.358;2024-01-16T11:45:19;5.40;99.90
44447;DHT22;30152;52.066;5.358;2024-01-16T11:48:15;5.30;99.90
44447;DHT22;30152;52.066;5.358;2024-01-16T11:50:41;5.20;99.90
44447;DHT22;30152;52.066;5.358;2024-01-16T11:53:07;5.50;99.90
44447;DHT22;30152;52.066;5.358;2024-01-16T12:00:56;4.80;99.90
44447;DHT22;30152;52.066;5.358;2024-01-16T12:03:23;5.40;99.90
44447;DHT22;30152;52.066;5.358;2024-01-16T12:05:55;5.40;99.90
44447;DHT22;30152;52.066;5.358;2024-01-16T12:08:20;6.00;99.90
44447;DHT22;30152;52.066;5.358;2024-01-16T12:10:46;6.30;99.90
44447;DHT22;30152;52.066;5.358;2024-01-16T12:13:15;6.90;99.90
44447;DHT22;30152;52.066;5.358;2024-01-16T12:15:40;6.60;99.30
44447;DHT22;30152;52.066;5.358;2024-01-16T12:18:07;7.00;99.00
44447;DHT22;30152;52.066;5.358;2024-01-16T12:20:33;5.60;99.20
44447;DHT22;30152;52.066;5.358;2024-01-16T12:23:02;5.40;99.90
44447;DHT22;30152;52.066;5.358;2024-01-16T12:25:29;5.10;99.90
44447;DHT22;30152;52.066;5.358;2024-01-16T12:27:55;4.70;99.90
44447;DHT22;30152;52.066;5.358;2024-01-16T12:30:23;4.20;99.90
44447;DHT22;30152;52.066;5.358;2024-01-16T12:32:48;3.80;99.90
44447;DHT22;30152;52.066;5.358;2024-01-16T12:35:21;3.30;99.90
44447;DHT22;30152;52.066;5.358;2024-01-16T12:37:59;3.10;99.90
44447;DHT22;30152;52.066;5.358;2024-01-16T12:40:25;3.50;99.90
44447;DHT22;30152;52.066;5.358;2024-01-16T12:42:50;3.80;99.90
44447;DHT22;30152;52.066;5.358;2024-01-16T12:45:16;4.40;99.90
44447;DHT22;30152;52.066;5.358;2024-01-16T12:47:42;3.50;99.90
44447;DHT22;30152;52.066;5.358;2024-01-16T12:50:08;3.80;99.90
44447;DHT22;30152;52.066;5.358;2024-01-16T12:52:33;3.90;99.90
44447;DHT22;30152;52.066;5.358;2024-01-16T12:54:59;3.90;99.90
44447;DHT22;30152;52.066;5.358;2024-01-16T12:57:26;3.30;99.90
44447;DHT22;30152;52.066;5.358;2024-01-16T12:59:51;3.20;99.90
44447;DHT22;30152;52.066;5.358;2024-01-16T13:02:24;3.90;99.90
44447;DHT22;30152;52.066;5.358;2024-01-16T13:04:57;3.90;99.90
44447;DHT22;30152;52.066;5.358;2024-01-16T13:07:23;4.30;99.90
44447;DHT22;30152;52.066;5.358;2024-01-16T13:09:49;4.40;99.90
44447;DHT22;30152;52.066;5.358;2024-01-16T13:12:21;4.70;99.90
44447;DHT22;30152;52.066;5.358;2024-01-16T13:14:46;4.00;99.90
44447;DHT22;30152;52.066;5.358;2024-01-16T13:17:12;3.70;99.90
44447;DHT22;30152;52.066;5.358;2024-01-16T13:19:37;3.70;99.90
44447;DHT22;30152;52.066;5.358;2024-01-16T13:22:04;4.00;99.90
44447;DHT22;30152;52.066;5.358;2024-01-16T13:24:30;3.40;99.90
44447;DHT22;30152;52.066;5.358;2024-01-16T13:26:56;3.10;99.90
44447;DHT22;30152;52.066;5.358;2024-01-16T13:29:21;3.50;99.90
44447;DHT22;30152;52.066;5.358;2024-01-16T13:31:46;4.20;99.90
44447;DHT22;30152;52.066;5.358;2024-01-16T13:34:13;4.30;99.90
44447;DHT22;30152;52.066;5.358;2024-01-16T13:36:39;3.70;99.90
44447;DHT22;30152;52.066;5.358;2024-01-16T13:39:05;4.00;99.90
44447;DHT22;30152;52.066;5.358;2024-01-16T13:41:37;5.30;99.90
44447;DHT22;30152;52.066;5.358;2024-01-16T13:44:03;4.10;99.90
44447;DHT22;30152;52.066;5.358;2024-01-16T13:46:30;4.40;99.90
44447;DHT22;30152;52.066;5.358;2024-01-16T13:48:55;4.20;99.90
44447;DHT22;30152;52.066;5.358;2024-01-16T13:51:20;5.00;99.90
44447;DHT22;30152;52.066;5.358;2024-01-16T13:53:46;4.40;99.90
44447;DHT22;30152;52.066;5.358;2024-01-16T13:56:12;4.50;99.90
44447;DHT22;30152;52.066;5.358;2024-01-16T13:58:37;5.50;99.90
44447;DHT22;30152;52.066;5.358;2024-01-16T14:01:03;5.40;99.90
44447;DHT22;30152;52.066;5.358;2024-01-16T14:03:29;5.40;99.90
44447;DHT22;30152;52.066;5.358;2024-01-16T14:05:55;5.50;99.90
44447;DHT22;30152;52.066;5.358;2024-01-16T14:08:21;4.90;99.90
44447;DHT22;30152;52.066;5.358;2024-01-16T14:10:46;5.80;99.90
44447;DHT22;30152;52.066;5.358;2024-01-16T14:13:13;5.00;99.90
44447;DHT22;30152;52.066;5.358;2024-01-16T14:15:38;5.90;99.90
44447;DHT22;30152;52.066;5.358;2024-01-16T14:18:04;4.80;99.90
44447;DHT22;30152;52.066;5.358;2024-01-16T14:20:30;4.80;99.90
44447;DHT22;30152;52.066;5.358;2024-01-16T14:22:55;4.80;99.90
44447;DHT22;30152;52.066;5.358;2024-01-16T14:25:21;3.80;99.90
44447;DHT22;30152;52.066;5.358;2024-01-16T14:27:58;4.30;99.90
44447;DHT22;30152;52.066;5.358;2024-01-16T14:30:23;3.70;99.90
44447;DHT22;30152;52.066;5.358;2024-01-16T14:32:50;3.90;99.90
44447;DHT22;30152;52.066;5.358;2024-01-16T14:35:16;3.70;99.90
44447;DHT22;30152;52.066;5.358;2024-01-16T14:37:42;3.70;99.90
44447;DHT22;30152;52.066;5.358;2024-01-16T14:40:08;3.70;99.90
44447;DHT22;30152;52.066;5.358;2024-01-16T14:42:46;3.50;99.90
44447;DHT22;30152;52.066;5.358;2024-01-16T14:45:16;5.50;99.90
44447;DHT22;30152;52.066;5.358;2024-01-16T14:47:42;3.20;99.90
44447;DHT22;30152;52.066;5.358;2024-01-16T14:50:08;3.50;99.90
44447;DHT22;30152;52.066;5.358;2024-01-16T14:52:35;3.10;99.90
44447;DHT22;30152;52.066;5.358;2024-01-16T14:55:01;3.20;99.90
44447;DHT22;30152;52.066;5.358;2024-01-16T14:57:26;3.10;99.90
44447;DHT22;30152;52.066;5.358;2024-01-16T14:59:52;2.90;99.90
44447;DHT22;30152;52.066;5.358;2024-01-16T15:02:18;2.80;99.90
44447;DHT22;30152;52.066;5.358;2024-01-16T15:04:46;2.80;99.90
44447;DHT22;30152;52.066;5.358;2024-01-16T15:10:00;2.70;99.90
44447;DHT22;30152;52.066;5.358;2024-01-16T15:12:26;3.20;99.90
44447;DHT22;30152;52.066;5.358;2024-01-16T15:14:52;2.40;99.90
44447;DHT22;30152;52.066;5.358;2024-01-16T15:17:18;2.40;99.90
44447;DHT22;30152;52.066;5.358;2024-01-16T15:19:43;2.70;99.90
44447;DHT22;30152;52.066;5.358;2024-01-16T15:22:09;2.20;99.90
44447;DHT22;30152;52.066;5.358;2024-01-16T15:24:34;2.20;99.90
44447;DHT22;30152;52.066;5.358;2024-01-16T15:27:00;2.10;99.90
44447;DHT22;30152;52.066;5.358;2024-01-16T15:29:25;2.00;99.90
44447;DHT22;30152;52.066;5.358;2024-01-16T15:31:56;2.00;99.90
44447;DHT22;30152;52.066;5.358;2024-01-16T15:34:22;1.90;99.90
44447;DHT22;30152;52.066;5.358;2024-01-16T15:36:48;1.90;99.90
44447;DHT22;30152;52.066;5.358;2024-01-16T15:39:13;1.90;99.90
44447;DHT22;30152;52.066;5.358;2024-01-16T15:41:42;1.90;99.90
44447;DHT22;30152;52.066;5.358;2024-01-16T15:44:09;1.90;99.90
44447;DHT22;30152;52.066;5.358;2024-01-16T15:49:19;1.80;99.90
44447;DHT22;30152;52.066;5.358;2024-01-16T15:51:44;2.90;99.90
44447;DHT22;30152;52.066;5.358;2024-01-16T15:54:10;1.70;99.90
44447;DHT22;30152;52.066;5.358;2024-01-16T15:56:36;1.70;99.90
44447;DHT22;30152;52.066;5.358;2024-01-16T15:59:02;1.70;99.90
44447;DHT22;30152;52.066;5.358;2024-01-16T16:01:27;1.70;99.90
44447;DHT22;30152;52.066;5.358;2024-01-16T16:03:53;1.70;99.90
44447;DHT22;30152;52.066;5.358;2024-01-16T16:06:18;1.60;99.90
44447;DHT22;30152;52.066;5.358;2024-01-16T16:08:44;1.70;99.90
44447;DHT22;30152;52.066;5.358;2024-01-16T16:11:10;1.70;99.90
44447;DHT22;30152;52.066;5.358;2024-01-16T16:13:36;1.70;99.90
44447;DHT22;30152;52.066;5.358;2024-01-16T16:16:02;1.60;99.90
44447;DHT22;30152;52.066;5.358;2024-01-16T16:18:27;1.50;99.90
44447;DHT22;30152;52.066;5.358;2024-01-16T16:20:53;1.70;99.90
44447;DHT22;30152;52.066;5.358;2024-01-16T16:23:18;1.50;99.90
44447;DHT22;30152;52.066;5.358;2024-01-16T16:25:44;1.50;99.90
44447;DHT22;30152;52.066;5.358;2024-01-16T16:28:10;1.40;99.90
44447;DHT22;30152;52.066;5.358;2024-01-16T16:30:36;1.40;99.90
44447;DHT22;30152;52.066;5.358;2024-01-16T16:33:01;1.40;99.90
44447;DHT22;30152;52.066;5.358;2024-01-16T16:35:27;1.40;99.90
44447;DHT22;30152;52.066;5.358;2024-01-16T16:37:53;1.30;99.90
44447;DHT22;30152;52.066;5.358;2024-01-16T16:40:18;1.30;99.90
44447;DHT22;30152;52.066;5.358;2024-01-16T16:42:44;1.30;99.90
44447;DHT22;30152;52.066;5.358;2024-01-16T16:45:09;1.20;99.90
44447;DHT22;30152;52.066;5.358;2024-01-16T16:47:37;1.30;99.90
44447;DHT22;30152;52.066;5.358;2024-01-16T16:50:02;1.30;99.90
44447;DHT22;30152;52.066;5.358;2024-01-16T16:52:30;1.30;99.90
44447;DHT22;30152;52.066;5.358;2024-01-16T16:54:55;1.30;99.90
44447;DHT22;30152;52.066;5.358;2024-01-16T16:57:21;1.30;99.90
44447;DHT22;30152;52.066;5.358;2024-01-16T16:59:47;1.40;99.90
44447;DHT22;30152;52.066;5.358;2024-01-16T17:02:13;1.30;99.90
44447;DHT22;30152;52.066;5.358;2024-01-16T17:04:39;1.30;99.90
44447;DHT22;30152;52.066;5.358;2024-01-16T17:07:05;2.50;99.90
44447;DHT22;30152;52.066;5.358;2024-01-16T17:09:30;1.30;99.90
44447;DHT22;30152;52.066;5.358;2024-01-16T17:11:56;1.40;99.90
44447;DHT22;30152;52.066;5.358;2024-01-16T17:14:21;1.40;99.90
44447;DHT22;30152;52.066;5.358;2024-01-16T17:16:47;1.40;99.90
44447;DHT22;30152;52.066;5.358;2024-01-16T17:19:12;1.40;99.90
44447;DHT22;30152;52.066;5.358;2024-01-16T17:21:38;1.40;99.90
44447;DHT22;30152;52.066;5.358;2024-01-16T17:24:04;4.40;99.90
44447;DHT22;30152;52.066;5.358;2024-01-16T17:26:29;1.50;99.90
44447;DHT22;30152;52.066;5.358;2024-01-16T17:28:55;1.50;99.90
44447;DHT22;30152;52.066;5.358;2024-01-16T17:31:21;1.50;99.90
44447;DHT22;30152;52.066;5.358;2024-01-16T17:33:46;1.40;99.90
44447;DHT22;30152;52.066;5.358;2024-01-16T17:36:12;1.50;99.90
44447;DHT22;30152;52.066;5.358;2024-01-16T17:38:38;1.40;99.90
44447;DHT22;30152;52.066;5.358;2024-01-16T17:41:04;1.40;99.90
44447;DHT22;30152;52.066;5.358;2024-01-16T17:43:30;1.50;99.90
44447;DHT22;30152;52.066;5.358;2024-01-16T17:45:56;2.80;99.90
44447;DHT22;30152;52.066;5.358;2024-01-16T17:48:22;1.40;99.90
44447;DHT22;30152;52.066;5.358;2024-01-16T17:50:49;1.40;99.90
44447;DHT22;30152;52.066;5.358;2024-01-16T17:53:14;1.40;99.90
44447;DHT22;30152;52.066;5.358;2024-01-16T17:55:40;1.50;99.90
44447;DHT22;30152;52.066;5.358;2024-01-16T17:58:06;1.40;99.90
44447;DHT22;30152;52.066;5.358;2024-01-16T18:00:31;3.40;99.90
44447;DHT22;30152;52.066;5.358;2024-01-16T18:02:58;1.30;99.90
44447;DHT22;30152;52.066;5.358;2024-01-16T18:05:24;1.30;99.90
44447;DHT22;30152;52.066;5.358;2024-01-16T18:07:53;1.30;99.90
44447;DHT22;30152;52.066;5.358;2024-01-16T18:10:18;1.30;99.90
44447;DHT22;30152;52.066;5.358;2024-01-16T18:12:45;1.30;99.90
44447;DHT22;30152;52.066;5.358;2024-01-16T18:15:10;1.20;99.90
44447;DHT22;30152;52.066;5.358;2024-01-16T18:17:38;1.10;99.90
44447;DHT22;30152;52.066;5.358;2024-01-16T18:20:04;1.20;99.90
44447;DHT22;30152;52.066;5.358;2024-01-16T18:22:33;1.10;99.90
44447;DHT22;30152;52.066;5.358;2024-01-16T18:24:58;1.10;99.90
44447;DHT22;30152;52.066;5.358;2024-01-16T18:27:23;1.10;99.90
44447;DHT22;30152;52.066;5.358;2024-01-16T18:29:49;1.10;99.90
44447;DHT22;30152;52.066;5.358;2024-01-16T18:32:15;1.10;99.90
44447;DHT22;30152;52.066;5.358;2024-01-16T18:34:42;1.20;99.90
44447;DHT22;30152;52.066;5.358;2024-01-16T18:37:08;1.20;99.90
44447;DHT22;30152;52.066;5.358;2024-01-16T18:39:34;1.10;99.90
44447;DHT22;30152;52.066;5.358;2024-01-16T18:42:00;1.10;99.90
44447;DHT22;30152;52.066;5.358;2024-01-16T18:44:26;1.20;99.90
44447;DHT22;30152;52.066;5.358;2024-01-16T18:46:51;1.20;99.90
44447;DHT22;30152;52.066;5.358;2024-01-16T18:49:17;1.10;99.90
44447;DHT22;30152;52.066;5.358;2024-01-16T18:51:43;1.30;99.90
44447;DHT22;30152;52.066;5.358;2024-01-16T18:54:09;1.10;99.90
44447;DHT22;30152;52.066;5.358;2024-01-16T18:56:34;1.10;99.90
44447;DHT22;30152;52.066;5.358;2024-01-16T18:59:00;1.10;99.90
44447;DHT22;30152;52.066;5.358;2024-01-16T19:01:25;1.50;99.90
44447;DHT22;30152;52.066;5.358;2024-01-16T19:03:54;1.10;99.90
44447;DHT22;30152;52.066;5.358;2024-01-16T19:08:56;1.10;99.90
44447;DHT22;30152;52.066;5.358;2024-01-16T19:11:23;1.10;99.90
44447;DHT22;30152;52.066;5.358;2024-01-16T19:13:48;1.00;99.90
44447;DHT22;30152;52.066;5.358;2024-01-16T19:16:14;0.90;99.90
44447;DHT22;30152;52.066;5.358;2024-01-16T19:18:40;0.90;99.90
44447;DHT22;30152;52.066;5.358;2024-01-16T19:21:07;2.30;99.90
44447;DHT22;30152;52.066;5.358;2024-01-16T19:23:36;2.80;99.90
44447;DHT22;30152;52.066;5.358;2024-01-16T19:26:02;1.00;99.90
44447;DHT22;30152;52.066;5.358;2024-01-16T19:28:31;0.90;99.90
44447;DHT22;30152;52.066;5.358;2024-01-16T19:30:59;0.90;99.90
44447;DHT22;30152;52.066;5.358;2024-01-16T19:33:26;0.90;99.90
44447;DHT22;30152;52.066;5.358;2024-01-16T19:35:52;3.10;99.90
44447;DHT22;30152;52.066;5.358;2024-01-16T19:38:17;0.90;99.90
44447;DHT22;30152;52.066;5.358;2024-01-16T19:40:46;0.90;99.90
44447;DHT22;30152;52.066;5.358;2024-01-16T19:43:11;0.90;99.90
44447;DHT22;30152;52.066;5.358;2024-01-16T19:45:37;0.90;99.90
44447;DHT22;30152;52.066;5.358;2024-01-16T19:48:03;0.80;99.90
44447;DHT22;30152;52.066;5.358;2024-01-16T19:50:28;0.70;99.90
44447;DHT22;30152;52.066;5.358;2024-01-16T19:52:54;0.70;99.90
44447;DHT22;30152;52.066;5.358;2024-01-16T19:55:22;0.60;99.90
44447;DHT22;30152;52.066;5.358;2024-01-16T19:57:49;3.60;99.90
44447;DHT22;30152;52.066;5.358;2024-01-16T20:00:15;0.50;99.90
44447;DHT22;30152;52.066;5.358;2024-01-16T20:02:42;0.50;99.90
44447;DHT22;30152;52.066;5.358;2024-01-16T20:05:08;0.50;99.90
44447;DHT22;30152;52.066;5.358;2024-01-16T20:07:33;0.40;99.90
44447;DHT22;30152;52.066;5.358;2024-01-16T20:09:59;0.40;99.90
44447;DHT22;30152;52.066;5.358;2024-01-16T20:12:24;0.30;99.90
44447;DHT22;30152;52.066;5.358;2024-01-16T20:14:50;0.40;99.90
44447;DHT22;30152;52.066;5.358;2024-01-16T20:17:15;0.30;99.90
44447;DHT22;30152;52.066;5.358;2024-01-16T20:19:41;0.20;99.90
44447;DHT22;30152;52.066;5.358;2024-01-16T20:22:07;0.20;99.90
44447;DHT22;30152;52.066;5.358;2024-01-16T20:24:32;0.10;99.90
44447;DHT22;30152;52.066;5.358;2024-01-16T20:26:59;0.10;99.90
44447;DHT22;30152;52.066;5.358;2024-01-16T20:29:25;0.10;99.90
44447;DHT22;30152;52.066;5.358;2024-01-16T20:31:51;0.10;99.90
44447;DHT22;30152;52.066;5.358;2024-01-16T20:34:17;0.00;99.90
44447;DHT22;30152;52.066;5.358;2024-01-16T20:36:42;0.00;99.90
44447;DHT22;30152;52.066;5.358;2024-01-16T20:39:10;0.00;99.90
44447;DHT22;30152;52.066;5.358;2024-01-16T20:41:37;-0.10;99.90
44447;DHT22;30152;52.066;5.358;2024-01-16T20:44:03;-0.10;99.90
44447;DHT22;30152;52.066;5.358;2024-01-16T20:46:28;0.00;99.90
44447;DHT22;30152;52.066;5.358;2024-01-16T20:48:54;-0.10;99.90
44447;DHT22;30152;52.066;5.358;2024-01-16T20:51:19;-0.10;99.90
44447;DHT22;30152;52.066;5.358;2024-01-16T20:53:45;-0.10;99.90
44447;DHT22;30152;52.066;5.358;2024-01-16T20:56:10;-0.10;99.90
44447;DHT22;30152;52.066;5.358;2024-01-16T20:58:36;-0.10;99.90
44447;DHT22;30152;52.066;5.358;2024-01-16T21:01:03;-0.10;99.90
44447;DHT22;30152;52.066;5.358;2024-01-16T21:03:29;-0.20;99.90
44447;DHT22;30152;52.066;5.358;2024-01-16T21:05:55;-0.20;99.90
44447;DHT22;30152;52.066;5.358;2024-01-16T21:08:21;-0.20;99.90
44447;DHT22;30152;52.066;5.358;2024-01-16T21:10:48;0.50;99.90
44447;DHT22;30152;52.066;5.358;2024-01-16T21:16:10;-0.10;99.90
44447;DHT22;30152;52.066;5.358;2024-01-16T21:18:37;-0.20;99.90
44447;DHT22;30152;52.066;5.358;2024-01-16T21:21:04;-0.20;99.90
44447;DHT22;30152;52.066;5.358;2024-01-16T21:23:29;-0.30;99.90
44447;DHT22;30152;52.066;5.358;2024-01-16T21:25:56;-0.20;99.90
44447;DHT22;30152;52.066;5.358;2024-01-16T21:28:21;-0.30;99.90
44447;DHT22;30152;52.066;5.358;2024-01-16T21:30:48;-0.40;99.90
44447;DHT22;30152;52.066;5.358;2024-01-16T21:33:14;-0.40;99.90
44447;DHT22;30152;52.066;5.358;2024-01-16T21:35:41;-0.40;99.90
44447;DHT22;30152;52.066;5.358;2024-01-16T21:38:06;-0.50;99.90
44447;DHT22;30152;52.066;5.358;2024-01-16T21:40:32;-0.50;99.90
44447;DHT22;30152;52.066;5.358;2024-01-16T21:42:59;-0.50;99.90
44447;DHT22;30152;52.066;5.358;2024-01-16T21:45:25;-0.50;99.90
44447;DHT22;30152;52.066;5.358;2024-01-16T21:47:50;-0.60;99.90
44447;DHT22;30152;52.066;5.358;2024-01-16T21:50:16;-0.50;99.90
44447;DHT22;30152;52.066;5.358;2024-01-16T21:52:41;-0.60;99.90
44447;DHT22;30152;52.066;5.358;2024-01-16T21:55:07;-0.60;99.90
44447;DHT22;30152;52.066;5.358;2024-01-16T21:57:32;-0.70;99.90
44447;DHT22;30152;52.066;5.358;2024-01-16T21:59:59;-1.10;99.90
44447;DHT22;30152;52.066;5.358;2024-01-16T22:02:25;-0.70;99.90
44447;DHT22;30152;52.066;5.358;2024-01-16T22:04:50;-0.60;99.90
44447;DHT22;30152;52.066;5.358;2024-01-16T22:07:16;-0.60;99.90
44447;DHT22;30152;52.066;5.358;2024-01-16T22:09:41;-0.60;99.90
44447;DHT22;30152;52.066;5.358;2024-01-16T22:12:07;-0.60;99.90
44447;DHT22;30152;52.066;5.358;2024-01-16T22:14:34;-0.50;99.90
44447;DHT22;30152;52.066;5.358;2024-01-16T22:17:01;-0.30;99.90
